sensor_id;sensor_type;location;lat;lon;timestamp;P1;durP1;ratioP1;P2;durP2;ratioP2
6031;SDS011;3044;43.232;27.972;2022-09-29T00:01:18;12.53;;;8.90;;
6031;SDS011;3044;43.232;27.972;2022-09-29T00:03:47;18.70;;;9.53;;
6031;SDS011;3044;43.232;27.972;2022-09-29T00:06:15;15.30;;;9.50;;
6031;SDS011;3044;43.232;27.972;2022-09-29T00:08:43;11.17;;;9.33;;
6031;SDS011;3044;43.232;27.972;2022-09-29T00:11:12;8.70;;;7.90;;
6031;SDS011;3044;43.232;27.972;2022-09-29T00:13:41;18.10;;;8.63;;
6031;SDS011;3044;43.232;27.972;2022-09-29T00:16:08;22.53;;;10.70;;
6031;SDS011;3044;43.232;27.972;2022-09-29T00:18:36;26.23;;;10.53;;
6031;SDS011;3044;43.232;27.972;2022-09-29T00:21:06;15.50;;;8.37;;
6031;SDS011;3044;43.232;27.972;2022-09-29T00:23:35;9.37;;;7.33;;
6031;SDS011;3044;43.232;27.972;2022-09-29T00:26:03;14.53;;;8.03;;
6031;SDS011;3044;43.232;27.972;2022-09-29T00:28:32;8.37;;;7.60;;
6031;SDS011;3044;43.232;27.972;2022-09-29T00:31:01;16.67;;;7.07;;
6031;SDS011;3044;43.232;27.972;2022-09-29T00:33:29;15.20;;;7.90;;
6031;SDS011;3044;43.232;27.972;2022-09-29T00:35:58;18.57;;;9.03;;
6031;SDS011;3044;43.232;27.972;2022-09-29T00:38:27;18.03;;;11.00;;
6031;SDS011;3044;43.232;27.972;2022-09-29T00:40:55;26.93;;;10.50;;
6031;SDS011;3044;43.232;27.972;2022-09-29T00:43:23;16.53;;;9.67;;
6031;SDS011;3044;43.232;27.972;2022-09-29T00:46:12;18.07;;;10.00;;
6031;SDS011;3044;43.232;27.972;2022-09-29T00:48:41;17.50;;;10.40;;
6031;SDS011;3044;43.232;27.972;2022-09-29T00:51:09;17.03;;;10.87;;
6031;SDS011;3044;43.232;27.972;2022-09-29T00:53:38;20.00;;;10.70;;
6031;SDS011;3044;43.232;27.972;2022-09-29T00:56:08;16.90;;;11.13;;
6031;SDS011;3044;43.232;27.972;2022-09-29T00:58:39;21.43;;;11.20;;
6031;SDS011;3044;43.232;27.972;2022-09-29T01:01:11;26.23;;;11.33;;
6031;SDS011;3044;43.232;27.972;2022-09-29T01:03:39;20.73;;;10.97;;
6031;SDS011;3044;43.232;27.972;2022-09-29T01:06:11;21.97;;;11.33;;
6031;SDS011;3044;43.232;27.972;2022-09-29T01:08:46;18.23;;;9.43;;
6031;SDS011;3044;43.232;27.972;2022-09-29T01:11:17;11.13;;;8.70;;
6031;SDS011;3044;43.232;27.972;2022-09-29T01:13:47;23.40;;;10.53;;
6031;SDS011;3044;43.232;27.972;2022-09-29T01:16:14;31.00;;;12.30;;
6031;SDS011;3044;43.232;27.972;2022-09-29T01:18:42;25.87;;;13.80;;
6031;SDS011;3044;43.232;27.972;2022-09-29T01:21:11;34.57;;;14.23;;
6031;SDS011;3044;43.232;27.972;2022-09-29T01:26:50;35.27;;;13.70;;
6031;SDS011;3044;43.232;27.972;2022-09-29T01:32:40;21.50;;;13.40;;
6031;SDS011;3044;43.232;27.972;2022-09-29T01:35:18;18.70;;;12.50;;
6031;SDS011;3044;43.232;27.972;2022-09-29T01:37:59;24.17;;;12.93;;
6031;SDS011;3044;43.232;27.972;2022-09-29T01:40:37;38.00;;;16.73;;
6031;SDS011;3044;43.232;27.972;2022-09-29T01:43:15;39.47;;;16.30;;
6031;SDS011;3044;43.232;27.972;2022-09-29T01:45:48;33.10;;;17.83;;
6031;SDS011;3044;43.232;27.972;2022-09-29T01:48:26;38.23;;;20.47;;
6031;SDS011;3044;43.232;27.972;2022-09-29T01:50:57;37.40;;;18.07;;
6031;SDS011;3044;43.232;27.972;2022-09-29T01:53:29;53.33;;;18.90;;
6031;SDS011;3044;43.232;27.972;2022-09-29T01:56:02;41.50;;;20.23;;
6031;SDS011;3044;43.232;27.972;2022-09-29T01:58:36;39.73;;;17.50;;
6031;SDS011;3044;43.232;27.972;2022-09-29T02:01:09;49.17;;;21.00;;
6031;SDS011;3044;43.232;27.972;2022-09-29T02:03:41;53.53;;;22.20;;
6031;SDS011;3044;43.232;27.972;2022-09-29T02:06:14;40.87;;;22.53;;
6031;SDS011;3044;43.232;27.972;2022-09-29T02:08:46;47.73;;;22.50;;
6031;SDS011;3044;43.232;27.972;2022-09-29T02:11:17;66.23;;;22.10;;
6031;SDS011;3044;43.232;27.972;2022-09-29T02:13:46;86.93;;;22.80;;
6031;SDS011;3044;43.232;27.972;2022-09-29T02:16:18;70.90;;;22.93;;
6031;SDS011;3044;43.232;27.972;2022-09-29T02:18:51;38.10;;;22.47;;
6031;SDS011;3044;43.232;27.972;2022-09-29T02:21:20;51.27;;;24.50;;
6031;SDS011;3044;43.232;27.972;2022-09-29T02:23:48;48.53;;;19.80;;
6031;SDS011;3044;43.232;27.972;2022-09-29T02:26:15;42.63;;;21.27;;
6031;SDS011;3044;43.232;27.972;2022-09-29T02:28:44;38.37;;;22.60;;
6031;SDS011;3044;43.232;27.972;2022-09-29T02:31:12;39.27;;;22.70;;
6031;SDS011;3044;43.232;27.972;2022-09-29T02:33:39;29.67;;;20.60;;
6031;SDS011;3044;43.232;27.972;2022-09-29T02:36:12;24.10;;;18.73;;
6031;SDS011;3044;43.232;27.972;2022-09-29T02:38:50;20.87;;;15.47;;
6031;SDS011;3044;43.232;27.972;2022-09-29T02:41:29;21.83;;;17.27;;
6031;SDS011;3044;43.232;27.972;2022-09-29T02:44:15;37.97;;;17.53;;
6031;SDS011;3044;43.232;27.972;2022-09-29T02:47:00;26.73;;;15.83;;
6031;SDS011;3044;43.232;27.972;2022-09-29T02:49:43;14.30;;;12.90;;
6031;SDS011;3044;43.232;27.972;2022-09-29T02:52:30;21.47;;;15.07;;
6031;SDS011;3044;43.232;27.972;2022-09-29T02:55:08;14.60;;;13.10;;
6031;SDS011;3044;43.232;27.972;2022-09-29T02:57:45;15.93;;;12.50;;
6031;SDS011;3044;43.232;27.972;2022-09-29T03:00:16;14.83;;;12.07;;
6031;SDS011;3044;43.232;27.972;2022-09-29T03:02:45;18.00;;;10.57;;
6031;SDS011;3044;43.232;27.972;2022-09-29T03:05:13;15.50;;;11.23;;
6031;SDS011;3044;43.232;27.972;2022-09-29T03:07:42;19.33;;;11.70;;
6031;SDS011;3044;43.232;27.972;2022-09-29T03:10:10;15.07;;;11.60;;
6031;SDS011;3044;43.232;27.972;2022-09-29T03:12:39;21.50;;;11.30;;
6031;SDS011;3044;43.232;27.972;2022-09-29T03:15:06;21.13;;;13.13;;
6031;SDS011;3044;43.232;27.972;2022-09-29T03:17:36;23.17;;;12.60;;
6031;SDS011;3044;43.232;27.972;2022-09-29T03:20:04;21.70;;;10.83;;
6031;SDS011;3044;43.232;27.972;2022-09-29T03:22:32;19.17;;;11.60;;
6031;SDS011;3044;43.232;27.972;2022-09-29T03:25:01;18.60;;;8.77;;
6031;SDS011;3044;43.232;27.972;2022-09-29T03:27:30;19.30;;;9.37;;
6031;SDS011;3044;43.232;27.972;2022-09-29T03:29:58;15.33;;;8.70;;
6031;SDS011;3044;43.232;27.972;2022-09-29T03:32:25;23.30;;;9.97;;
6031;SDS011;3044;43.232;27.972;2022-09-29T03:34:52;21.23;;;9.97;;
6031;SDS011;3044;43.232;27.972;2022-09-29T03:37:19;15.47;;;9.50;;
6031;SDS011;3044;43.232;27.972;2022-09-29T03:39:46;22.83;;;10.67;;
6031;SDS011;3044;43.232;27.972;2022-09-29T03:42:15;19.63;;;13.00;;
6031;SDS011;3044;43.232;27.972;2022-09-29T03:44:42;34.67;;;19.30;;
6031;SDS011;3044;43.232;27.972;2022-09-29T03:47:09;33.63;;;20.87;;
6031;SDS011;3044;43.232;27.972;2022-09-29T03:49:36;213.30;;;27.40;;
6031;SDS011;3044;43.232;27.972;2022-09-29T03:52:03;581.83;;;38.77;;
6031;SDS011;3044;43.232;27.972;2022-09-29T03:54:31;457.87;;;30.60;;
6031;SDS011;3044;43.232;27.972;2022-09-29T03:56:58;967.63;;;47.77;;
6031;SDS011;3044;43.232;27.972;2022-09-29T03:59:27;1081.40;;;54.20;;
6031;SDS011;3044;43.232;27.972;2022-09-29T04:01:55;1299.33;;;63.10;;
6031;SDS011;3044;43.232;27.972;2022-09-29T04:04:22;725.70;;;40.07;;
6031;SDS011;3044;43.232;27.972;2022-09-29T04:06:49;1402.93;;;73.10;;
6031;SDS011;3044;43.232;27.972;2022-09-29T04:09:16;1220.23;;;64.00;;
6031;SDS011;3044;43.232;27.972;2022-09-29T04:11:43;956.73;;;47.30;;
6031;SDS011;3044;43.232;27.972;2022-09-29T04:14:10;895.90;;;43.40;;
6031;SDS011;3044;43.232;27.972;2022-09-29T04:16:39;322.00;;;25.47;;
6031;SDS011;3044;43.232;27.972;2022-09-29T04:19:06;29.93;;;20.67;;
6031;SDS011;3044;43.232;27.972;2022-09-29T04:21:33;21.40;;;18.20;;
6031;SDS011;3044;43.232;27.972;2022-09-29T04:24:01;18.73;;;15.80;;
6031;SDS011;3044;43.232;27.972;2022-09-29T04:26:28;18.03;;;13.83;;
6031;SDS011;3044;43.232;27.972;2022-09-29T04:28:55;13.90;;;12.60;;
6031;SDS011;3044;43.232;27.972;2022-09-29T04:31:22;18.77;;;11.30;;
6031;SDS011;3044;43.232;27.972;2022-09-29T04:33:51;13.87;;;11.50;;
6031;SDS011;3044;43.232;27.972;2022-09-29T04:36:18;10.90;;;7.60;;
6031;SDS011;3044;43.232;27.972;2022-09-29T04:38:45;13.33;;;6.20;;
6031;SDS011;3044;43.232;27.972;2022-09-29T04:41:14;12.57;;;6.90;;
6031;SDS011;3044;43.232;27.972;2022-09-29T04:43:41;11.00;;;6.80;;
6031;SDS011;3044;43.232;27.972;2022-09-29T04:46:09;16.73;;;8.20;;
6031;SDS011;3044;43.232;27.972;2022-09-29T04:48:37;22.23;;;7.73;;
6031;SDS011;3044;43.232;27.972;2022-09-29T04:51:06;11.23;;;7.23;;
6031;SDS011;3044;43.232;27.972;2022-09-29T04:53:34;8.77;;;7.70;;
6031;SDS011;3044;43.232;27.972;2022-09-29T04:56:05;14.53;;;5.83;;
6031;SDS011;3044;43.232;27.972;2022-09-29T04:58:33;11.07;;;5.23;;
6031;SDS011;3044;43.232;27.972;2022-09-29T05:01:04;16.93;;;9.33;;
6031;SDS011;3044;43.232;27.972;2022-09-29T05:03:32;17.53;;;12.30;;
6031;SDS011;3044;43.232;27.972;2022-09-29T05:05:59;26.60;;;16.03;;
6031;SDS011;3044;43.232;27.972;2022-09-29T05:08:28;23.07;;;14.73;;
6031;SDS011;3044;43.232;27.972;2022-09-29T05:10:55;21.83;;;10.50;;
6031;SDS011;3044;43.232;27.972;2022-09-29T05:13:22;12.80;;;8.30;;
6031;SDS011;3044;43.232;27.972;2022-09-29T05:15:53;20.60;;;9.57;;
6031;SDS011;3044;43.232;27.972;2022-09-29T05:18:22;12.77;;;6.53;;
6031;SDS011;3044;43.232;27.972;2022-09-29T05:20:49;9.00;;;5.30;;
6031;SDS011;3044;43.232;27.972;2022-09-29T05:23:16;9.50;;;4.43;;
6031;SDS011;3044;43.232;27.972;2022-09-29T05:25:45;10.23;;;5.30;;
6031;SDS011;3044;43.232;27.972;2022-09-29T05:28:12;16.90;;;5.33;;
6031;SDS011;3044;43.232;27.972;2022-09-29T05:30:41;10.53;;;4.47;;
6031;SDS011;3044;43.232;27.972;2022-09-29T05:33:09;10.17;;;4.63;;
6031;SDS011;3044;43.232;27.972;2022-09-29T05:35:36;9.60;;;4.40;;
6031;SDS011;3044;43.232;27.972;2022-09-29T05:38:04;10.87;;;4.27;;
6031;SDS011;3044;43.232;27.972;2022-09-29T05:40:31;8.00;;;4.30;;
6031;SDS011;3044;43.232;27.972;2022-09-29T05:43:00;5.67;;;4.40;;
6031;SDS011;3044;43.232;27.972;2022-09-29T05:45:27;11.00;;;5.00;;
6031;SDS011;3044;43.232;27.972;2022-09-29T05:47:54;8.00;;;4.90;;
6031;SDS011;3044;43.232;27.972;2022-09-29T05:50:22;19.93;;;7.03;;
6031;SDS011;3044;43.232;27.972;2022-09-29T05:52:49;16.97;;;6.93;;
6031;SDS011;3044;43.232;27.972;2022-09-29T05:55:17;17.10;;;6.73;;
6031;SDS011;3044;43.232;27.972;2022-09-29T05:57:46;18.47;;;5.50;;
6031;SDS011;3044;43.232;27.972;2022-09-29T06:00:16;10.07;;;3.60;;
6031;SDS011;3044;43.232;27.972;2022-09-29T06:02:43;13.13;;;3.33;;
6031;SDS011;3044;43.232;27.972;2022-09-29T06:05:10;7.10;;;3.03;;
6031;SDS011;3044;43.232;27.972;2022-09-29T06:07:37;5.53;;;2.37;;
6031;SDS011;3044;43.232;27.972;2022-09-29T06:10:05;2.90;;;2.17;;
6031;SDS011;3044;43.232;27.972;2022-09-29T06:12:33;13.73;;;11.83;;
6031;SDS011;3044;43.232;27.972;2022-09-29T06:15:02;16.27;;;14.20;;
6031;SDS011;3044;43.232;27.972;2022-09-29T06:17:32;4.40;;;1.47;;
6031;SDS011;3044;43.232;27.972;2022-09-29T06:20:00;2.60;;;2.27;;
6031;SDS011;3044;43.232;27.972;2022-09-29T06:22:28;6.07;;;2.23;;
6031;SDS011;3044;43.232;27.972;2022-09-29T06:24:55;122.47;;;82.97;;
6031;SDS011;3044;43.232;27.972;2022-09-29T06:27:22;7.17;;;3.00;;
6031;SDS011;3044;43.232;27.972;2022-09-29T06:29:49;3.10;;;2.40;;
6031;SDS011;3044;43.232;27.972;2022-09-29T06:32:16;12.47;;;2.70;;
6031;SDS011;3044;43.232;27.972;2022-09-29T06:34:45;6.10;;;2.70;;
6031;SDS011;3044;43.232;27.972;2022-09-29T06:37:29;15.00;;;3.17;;
6031;SDS011;3044;43.232;27.972;2022-09-29T06:40:04;8.93;;;2.50;;
6031;SDS011;3044;43.232;27.972;2022-09-29T06:42:33;7.50;;;3.00;;
6031;SDS011;3044;43.232;27.972;2022-09-29T06:45:00;12.10;;;4.03;;
6031;SDS011;3044;43.232;27.972;2022-09-29T06:47:28;15.50;;;6.40;;
6031;SDS011;3044;43.232;27.972;2022-09-29T06:49:57;17.37;;;9.67;;
6031;SDS011;3044;43.232;27.972;2022-09-29T06:52:26;16.80;;;9.20;;
6031;SDS011;3044;43.232;27.972;2022-09-29T06:54:54;12.30;;;7.23;;
6031;SDS011;3044;43.232;27.972;2022-09-29T06:57:21;28.53;;;8.43;;
6031;SDS011;3044;43.232;27.972;2022-09-29T06:59:49;8.77;;;6.23;;
6031;SDS011;3044;43.232;27.972;2022-09-29T07:02:16;8.67;;;5.57;;
6031;SDS011;3044;43.232;27.972;2022-09-29T07:04:43;8.17;;;5.47;;
6031;SDS011;3044;43.232;27.972;2022-09-29T07:07:13;11.40;;;5.50;;
6031;SDS011;3044;43.232;27.972;2022-09-29T07:09:41;18.00;;;4.70;;
6031;SDS011;3044;43.232;27.972;2022-09-29T07:12:08;13.00;;;4.90;;
6031;SDS011;3044;43.232;27.972;2022-09-29T07:14:36;26.77;;;4.90;;
6031;SDS011;3044;43.232;27.972;2022-09-29T07:17:03;12.13;;;3.90;;
6031;SDS011;3044;43.232;27.972;2022-09-29T07:19:30;8.47;;;5.80;;
6031;SDS011;3044;43.232;27.972;2022-09-29T07:21:58;134.53;;;105.70;;
6031;SDS011;3044;43.232;27.972;2022-09-29T07:24:26;5.93;;;4.17;;
6031;SDS011;3044;43.232;27.972;2022-09-29T07:26:53;8.50;;;3.13;;
6031;SDS011;3044;43.232;27.972;2022-09-29T07:29:20;4.00;;;3.60;;
6031;SDS011;3044;43.232;27.972;2022-09-29T07:31:48;7.53;;;4.00;;
6031;SDS011;3044;43.232;27.972;2022-09-29T07:34:16;9.47;;;3.40;;
6031;SDS011;3044;43.232;27.972;2022-09-29T07:36:44;8.93;;;3.23;;
6031;SDS011;3044;43.232;27.972;2022-09-29T07:39:11;9.37;;;3.40;;
6031;SDS011;3044;43.232;27.972;2022-09-29T07:41:40;3.60;;;2.83;;
6031;SDS011;3044;43.232;27.972;2022-09-29T07:44:07;2.87;;;2.67;;
6031;SDS011;3044;43.232;27.972;2022-09-29T07:46:34;5.53;;;3.23;;
6031;SDS011;3044;43.232;27.972;2022-09-29T07:49:01;2.80;;;2.60;;
6031;SDS011;3044;43.232;27.972;2022-09-29T07:51:28;5.80;;;3.30;;
6031;SDS011;3044;43.232;27.972;2022-09-29T07:53:59;7.07;;;3.23;;
6031;SDS011;3044;43.232;27.972;2022-09-29T07:56:27;3.30;;;3.00;;
6031;SDS011;3044;43.232;27.972;2022-09-29T07:58:56;3.93;;;3.20;;
6031;SDS011;3044;43.232;27.972;2022-09-29T08:01:23;8.60;;;7.03;;
6031;SDS011;3044;43.232;27.972;2022-09-29T08:03:51;6.63;;;5.97;;
6031;SDS011;3044;43.232;27.972;2022-09-29T08:06:19;7.93;;;4.93;;
6031;SDS011;3044;43.232;27.972;2022-09-29T08:08:47;3.00;;;2.80;;
6031;SDS011;3044;43.232;27.972;2022-09-29T08:11:16;12.90;;;2.37;;
6031;SDS011;3044;43.232;27.972;2022-09-29T08:13:45;2.27;;;1.93;;
6031;SDS011;3044;43.232;27.972;2022-09-29T08:16:14;3.43;;;2.17;;
6031;SDS011;3044;43.232;27.972;2022-09-29T08:18:41;3.57;;;2.80;;
6031;SDS011;3044;43.232;27.972;2022-09-29T08:21:09;7.37;;;2.57;;
6031;SDS011;3044;43.232;27.972;2022-09-29T08:23:37;3.90;;;1.93;;
6031;SDS011;3044;43.232;27.972;2022-09-29T08:26:06;2.33;;;1.97;;
6031;SDS011;3044;43.232;27.972;2022-09-29T08:28:35;3.10;;;2.13;;
6031;SDS011;3044;43.232;27.972;2022-09-29T08:31:03;2.43;;;1.70;;
6031;SDS011;3044;43.232;27.972;2022-09-29T08:33:33;4.40;;;2.33;;
6031;SDS011;3044;43.232;27.972;2022-09-29T08:36:01;5.80;;;2.77;;
6031;SDS011;3044;43.232;27.972;2022-09-29T08:38:32;5.10;;;2.40;;
6031;SDS011;3044;43.232;27.972;2022-09-29T08:41:09;8.93;;;2.00;;
6031;SDS011;3044;43.232;27.972;2022-09-29T08:43:47;6.13;;;2.50;;
6031;SDS011;3044;43.232;27.972;2022-09-29T08:46:20;3.93;;;2.50;;
6031;SDS011;3044;43.232;27.972;2022-09-29T08:48:54;7.43;;;2.93;;
6031;SDS011;3044;43.232;27.972;2022-09-29T08:51:27;3.63;;;2.43;;
6031;SDS011;3044;43.232;27.972;2022-09-29T08:53:57;63.07;;;44.47;;
6031;SDS011;3044;43.232;27.972;2022-09-29T08:56:33;9.37;;;2.90;;
6031;SDS011;3044;43.232;27.972;2022-09-29T08:59:01;4.17;;;2.70;;
6031;SDS011;3044;43.232;27.972;2022-09-29T09:01:30;7.37;;;3.10;;
6031;SDS011;3044;43.232;27.972;2022-09-29T09:07:00;6.73;;;2.43;;
6031;SDS011;3044;43.232;27.972;2022-09-29T09:12:32;6.47;;;2.67;;
6031;SDS011;3044;43.232;27.972;2022-09-29T09:15:19;8.50;;;3.60;;
6031;SDS011;3044;43.232;27.972;2022-09-29T09:18:03;8.23;;;3.17;;
6031;SDS011;3044;43.232;27.972;2022-09-29T09:20:47;7.20;;;3.50;;
6031;SDS011;3044;43.232;27.972;2022-09-29T09:23:22;10.00;;;3.37;;
6031;SDS011;3044;43.232;27.972;2022-09-29T09:25:54;6.57;;;3.00;;
6031;SDS011;3044;43.232;27.972;2022-09-29T09:28:26;6.60;;;3.20;;
6031;SDS011;3044;43.232;27.972;2022-09-29T09:30:57;6.23;;;3.30;;
6031;SDS011;3044;43.232;27.972;2022-09-29T09:33:32;10.17;;;3.80;;
6031;SDS011;3044;43.232;27.972;2022-09-29T09:36:07;8.33;;;3.20;;
6031;SDS011;3044;43.232;27.972;2022-09-29T09:38:40;12.40;;;3.70;;
6031;SDS011;3044;43.232;27.972;2022-09-29T09:41:14;9.40;;;3.80;;
6031;SDS011;3044;43.232;27.972;2022-09-29T09:43:46;7.53;;;3.40;;
6031;SDS011;3044;43.232;27.972;2022-09-29T09:46:18;17.47;;;4.20;;
6031;SDS011;3044;43.232;27.972;2022-09-29T09:48:54;15.13;;;4.50;;
6031;SDS011;3044;43.232;27.972;2022-09-29T09:51:31;12.40;;;4.07;;
6031;SDS011;3044;43.232;27.972;2022-09-29T09:54:08;12.97;;;4.60;;
6031;SDS011;3044;43.232;27.972;2022-09-29T09:56:43;14.57;;;6.07;;
6031;SDS011;3044;43.232;27.972;2022-09-29T09:59:30;18.90;;;13.80;;
6031;SDS011;3044;43.232;27.972;2022-09-29T10:02:08;8.30;;;4.23;;
6031;SDS011;3044;43.232;27.972;2022-09-29T10:04:44;4.60;;;3.30;;
6031;SDS011;3044;43.232;27.972;2022-09-29T10:07:15;8.57;;;3.90;;
6031;SDS011;3044;43.232;27.972;2022-09-29T10:09:43;7.73;;;4.00;;
6031;SDS011;3044;43.232;27.972;2022-09-29T10:12:11;8.20;;;4.70;;
6031;SDS011;3044;43.232;27.972;2022-09-29T10:14:43;17.60;;;4.70;;
6031;SDS011;3044;43.232;27.972;2022-09-29T10:17:17;19.43;;;4.70;;
6031;SDS011;3044;43.232;27.972;2022-09-29T10:19:51;15.73;;;4.60;;
6031;SDS011;3044;43.232;27.972;2022-09-29T10:22:21;12.67;;;5.40;;
6031;SDS011;3044;43.232;27.972;2022-09-29T10:24:50;8.03;;;4.40;;
6031;SDS011;3044;43.232;27.972;2022-09-29T10:27:21;13.80;;;4.63;;
6031;SDS011;3044;43.232;27.972;2022-09-29T10:29:51;11.10;;;4.13;;
6031;SDS011;3044;43.232;27.972;2022-09-29T10:32:21;11.93;;;4.53;;
6031;SDS011;3044;43.232;27.972;2022-09-29T10:35:02;16.33;;;4.80;;
6031;SDS011;3044;43.232;27.972;2022-09-29T10:37:35;13.50;;;5.10;;
6031;SDS011;3044;43.232;27.972;2022-09-29T10:40:12;13.63;;;4.30;;
6031;SDS011;3044;43.232;27.972;2022-09-29T10:42:45;15.70;;;4.43;;
6031;SDS011;3044;43.232;27.972;2022-09-29T10:45:16;24.57;;;9.50;;
6031;SDS011;3044;43.232;27.972;2022-09-29T10:47:46;16.13;;;8.20;;
6031;SDS011;3044;43.232;27.972;2022-09-29T10:50:15;17.93;;;4.40;;
6031;SDS011;3044;43.232;27.972;2022-09-29T10:52:49;11.20;;;4.50;;
6031;SDS011;3044;43.232;27.972;2022-09-29T10:55:19;17.97;;;6.90;;
6031;SDS011;3044;43.232;27.972;2022-09-29T10:57:49;11.40;;;4.27;;
6031;SDS011;3044;43.232;27.972;2022-09-29T11:00:28;7.50;;;3.40;;
6031;SDS011;3044;43.232;27.972;2022-09-29T11:03:01;9.40;;;4.50;;
6031;SDS011;3044;43.232;27.972;2022-09-29T11:05:32;13.43;;;4.47;;
6031;SDS011;3044;43.232;27.972;2022-09-29T11:08:02;12.10;;;4.57;;
6031;SDS011;3044;43.232;27.972;2022-09-29T11:10:30;8.83;;;3.77;;
6031;SDS011;3044;43.232;27.972;2022-09-29T11:13:06;10.97;;;3.60;;
6031;SDS011;3044;43.232;27.972;2022-09-29T11:16:04;35.20;;;22.30;;
6031;SDS011;3044;43.232;27.972;2022-09-29T11:18:39;10.93;;;6.87;;
6031;SDS011;3044;43.232;27.972;2022-09-29T11:21:16;10.27;;;4.00;;
6031;SDS011;3044;43.232;27.972;2022-09-29T11:24:02;12.43;;;4.50;;
6031;SDS011;3044;43.232;27.972;2022-09-29T11:26:36;10.60;;;4.20;;
6031;SDS011;3044;43.232;27.972;2022-09-29T11:29:17;10.70;;;3.80;;
6031;SDS011;3044;43.232;27.972;2022-09-29T11:31:57;12.33;;;3.60;;
6031;SDS011;3044;43.232;27.972;2022-09-29T11:34:37;9.33;;;4.17;;
6031;SDS011;3044;43.232;27.972;2022-09-29T11:37:21;7.30;;;4.07;;
6031;SDS011;3044;43.232;27.972;2022-09-29T11:40:02;9.97;;;4.17;;
6031;SDS011;3044;43.232;27.972;2022-09-29T11:42:44;8.17;;;4.17;;
6031;SDS011;3044;43.232;27.972;2022-09-29T11:45:24;15.83;;;4.87;;
6031;SDS011;3044;43.232;27.972;2022-09-29T11:51:00;14.03;;;5.10;;
6031;SDS011;3044;43.232;27.972;2022-09-29T11:53:37;6.77;;;4.20;;
6031;SDS011;3044;43.232;27.972;2022-09-29T11:56:26;12.73;;;4.70;;
6031;SDS011;3044;43.232;27.972;2022-09-29T11:59:11;13.97;;;5.03;;
6031;SDS011;3044;43.232;27.972;2022-09-29T12:01:53;25.47;;;6.33;;
6031;SDS011;3044;43.232;27.972;2022-09-29T12:04:40;12.00;;;5.07;;
6031;SDS011;3044;43.232;27.972;2022-09-29T12:07:21;13.83;;;6.40;;
6031;SDS011;3044;43.232;27.972;2022-09-29T12:10:05;14.23;;;6.47;;
6031;SDS011;3044;43.232;27.972;2022-09-29T12:12:47;10.63;;;5.77;;
6031;SDS011;3044;43.232;27.972;2022-09-29T12:15:23;22.47;;;6.10;;
6031;SDS011;3044;43.232;27.972;2022-09-29T12:17:58;18.83;;;7.00;;
6031;SDS011;3044;43.232;27.972;2022-09-29T12:20:30;10.80;;;7.50;;
6031;SDS011;3044;43.232;27.972;2022-09-29T12:23:01;23.03;;;7.60;;
6031;SDS011;3044;43.232;27.972;2022-09-29T12:25:32;10.03;;;5.40;;
6031;SDS011;3044;43.232;27.972;2022-09-29T12:28:05;12.47;;;5.30;;
6031;SDS011;3044;43.232;27.972;2022-09-29T12:30:40;14.93;;;6.50;;
6031;SDS011;3044;43.232;27.972;2022-09-29T12:33:16;17.87;;;6.33;;
6031;SDS011;3044;43.232;27.972;2022-09-29T12:35:50;16.23;;;6.93;;
6031;SDS011;3044;43.232;27.972;2022-09-29T12:38:24;13.90;;;4.70;;
6031;SDS011;3044;43.232;27.972;2022-09-29T12:41:02;9.97;;;5.50;;
6031;SDS011;3044;43.232;27.972;2022-09-29T12:43:40;9.10;;;4.50;;
6031;SDS011;3044;43.232;27.972;2022-09-29T12:46:16;9.97;;;4.77;;
6031;SDS011;3044;43.232;27.972;2022-09-29T12:48:51;9.00;;;4.93;;
6031;SDS011;3044;43.232;27.972;2022-09-29T12:51:27;15.63;;;5.70;;
6031;SDS011;3044;43.232;27.972;2022-09-29T12:54:02;12.93;;;5.40;;
6031;SDS011;3044;43.232;27.972;2022-09-29T12:56:37;9.13;;;5.00;;
6031;SDS011;3044;43.232;27.972;2022-09-29T12:59:11;26.70;;;16.10;;
6031;SDS011;3044;43.232;27.972;2022-09-29T13:01:44;10.80;;;8.47;;
6031;SDS011;3044;43.232;27.972;2022-09-29T13:07:28;10.80;;;4.60;;
6031;SDS011;3044;43.232;27.972;2022-09-29T13:13:31;13.67;;;5.40;;
6031;SDS011;3044;43.232;27.972;2022-09-29T13:16:32;11.60;;;4.70;;
6031;SDS011;3044;43.232;27.972;2022-09-29T13:25:23;12.77;;;4.67;;
6031;SDS011;3044;43.232;27.972;2022-09-29T13:27:58;9.60;;;4.60;;
6031;SDS011;3044;43.232;27.972;2022-09-29T13:30:26;10.57;;;4.50;;
6031;SDS011;3044;43.232;27.972;2022-09-29T13:32:59;12.27;;;4.90;;
6031;SDS011;3044;43.232;27.972;2022-09-29T13:35:36;8.43;;;4.80;;
6031;SDS011;3044;43.232;27.972;2022-09-29T13:38:07;11.47;;;4.83;;
6031;SDS011;3044;43.232;27.972;2022-09-29T13:40:44;10.60;;;5.53;;
6031;SDS011;3044;43.232;27.972;2022-09-29T13:44:01;10.03;;;5.50;;
6031;SDS011;3044;43.232;27.972;2022-09-29T13:46:35;10.33;;;4.60;;
6031;SDS011;3044;43.232;27.972;2022-09-29T13:49:13;15.50;;;4.93;;
6031;SDS011;3044;43.232;27.972;2022-09-29T13:51:48;13.33;;;6.07;;
6031;SDS011;3044;43.232;27.972;2022-09-29T13:54:21;20.27;;;6.17;;
6031;SDS011;3044;43.232;27.972;2022-09-29T14:03:00;11.13;;;6.10;;
6031;SDS011;3044;43.232;27.972;2022-09-29T14:05:41;11.43;;;6.20;;
6031;SDS011;3044;43.232;27.972;2022-09-29T14:08:13;12.73;;;6.27;;
6031;SDS011;3044;43.232;27.972;2022-09-29T14:10:47;14.23;;;8.33;;
6031;SDS011;3044;43.232;27.972;2022-09-29T14:13:21;16.60;;;7.80;;
6031;SDS011;3044;43.232;27.972;2022-09-29T14:15:51;11.90;;;6.03;;
6031;SDS011;3044;43.232;27.972;2022-09-29T14:18:33;11.83;;;7.33;;
6031;SDS011;3044;43.232;27.972;2022-09-29T14:21:04;12.37;;;5.40;;
6031;SDS011;3044;43.232;27.972;2022-09-29T14:23:49;8.80;;;5.77;;
6031;SDS011;3044;43.232;27.972;2022-09-29T14:29:19;17.80;;;6.20;;
6031;SDS011;3044;43.232;27.972;2022-09-29T14:31:52;14.40;;;6.27;;
6031;SDS011;3044;43.232;27.972;2022-09-29T14:34:22;17.97;;;7.33;;
6031;SDS011;3044;43.232;27.972;2022-09-29T14:36:53;11.13;;;6.13;;
6031;SDS011;3044;43.232;27.972;2022-09-29T14:39:22;8.93;;;5.77;;
6031;SDS011;3044;43.232;27.972;2022-09-29T14:41:50;10.43;;;6.07;;
6031;SDS011;3044;43.232;27.972;2022-09-29T14:44:18;11.57;;;5.60;;
6031;SDS011;3044;43.232;27.972;2022-09-29T14:46:59;17.07;;;6.97;;
6031;SDS011;3044;43.232;27.972;2022-09-29T14:56:26;13.90;;;7.77;;
6031;SDS011;3044;43.232;27.972;2022-09-29T14:59:10;11.50;;;8.60;;
6031;SDS011;3044;43.232;27.972;2022-09-29T15:01:58;15.83;;;7.70;;
6031;SDS011;3044;43.232;27.972;2022-09-29T15:04:44;17.13;;;7.80;;
6031;SDS011;3044;43.232;27.972;2022-09-29T15:07:13;12.37;;;7.67;;
6031;SDS011;3044;43.232;27.972;2022-09-29T15:09:45;14.60;;;8.93;;
6031;SDS011;3044;43.232;27.972;2022-09-29T15:12:15;18.03;;;8.13;;
6031;SDS011;3044;43.232;27.972;2022-09-29T15:14:47;13.50;;;9.30;;
6031;SDS011;3044;43.232;27.972;2022-09-29T15:17:22;22.40;;;9.43;;
6031;SDS011;3044;43.232;27.972;2022-09-29T15:20:00;14.80;;;9.13;;
6031;SDS011;3044;43.232;27.972;2022-09-29T15:25:40;20.30;;;10.30;;
6031;SDS011;3044;43.232;27.972;2022-09-29T15:28:10;16.40;;;8.30;;
6031;SDS011;3044;43.232;27.972;2022-09-29T15:30:40;18.67;;;10.07;;
6031;SDS011;3044;43.232;27.972;2022-09-29T15:33:18;10.20;;;8.53;;
6031;SDS011;3044;43.232;27.972;2022-09-29T16:44:48;16.53;;;10.03;;
6031;SDS011;3044;43.232;27.972;2022-09-29T16:47:26;18.87;;;9.20;;
6031;SDS011;3044;43.232;27.972;2022-09-29T17:00:17;21.80;;;9.10;;
6031;SDS011;3044;43.232;27.972;2022-09-29T17:02:48;16.40;;;10.10;;
6031;SDS011;3044;43.232;27.972;2022-09-29T17:05:16;17.40;;;8.73;;
6031;SDS011;3044;43.232;27.972;2022-09-29T17:07:46;23.03;;;9.57;;
6031;SDS011;3044;43.232;27.972;2022-09-29T17:10:15;18.50;;;9.67;;
6031;SDS011;3044;43.232;27.972;2022-09-29T17:12:44;14.07;;;8.67;;
6031;SDS011;3044;43.232;27.972;2022-09-29T17:15:12;24.77;;;10.30;;
6031;SDS011;3044;43.232;27.972;2022-09-29T17:17:42;15.80;;;9.13;;
6031;SDS011;3044;43.232;27.972;2022-09-29T17:20:11;25.70;;;9.47;;
6031;SDS011;3044;43.232;27.972;2022-09-29T17:22:40;22.83;;;9.80;;